createdAt,value
2022-11-28T00:04:41.602Z,32.1
2022-11-28T00:09:43.571Z,32
2022-11-28T00:14:45.701Z,32
2022-11-28T00:19:47.724Z,32
2022-11-28T00:24:49.508Z,32
2022-11-28T00:29:51.400Z,31.9
2022-11-28T00:34:53.139Z,31.9
2022-11-28T00:39:55.102Z,31.9
2022-11-28T00:44:57.179Z,31.9
2022-11-28T00:49:59.140Z,31.9
2022-11-28T00:55:01.111Z,31.9
2022-11-28T01:00:03.189Z,31.9
2022-11-28T01:05:05.133Z,31.9
2022-11-28T01:10:07.063Z,31.8
2022-11-28T01:15:08.892Z,31.8
2022-11-28T01:20:10.883Z,31.8
2022-11-28T01:25:12.617Z,31.8
2022-11-28T01:30:14.471Z,31.8
2022-11-28T01:35:16.208Z,31.8
2022-11-28T01:40:18.173Z,31.8
2022-11-28T01:45:20.011Z,31.8
2022-11-28T01:50:21.709Z,31.8
2022-11-28T01:55:23.647Z,31.8
2022-11-28T02:00:25.453Z,31.7
2022-11-28T02:05:27.161Z,31.7
2022-11-28T02:10:28.861Z,31.7
2022-11-28T02:15:30.705Z,31.7
2022-11-28T02:20:32.424Z,31.6
2022-11-28T02:25:34.153Z,31.6
2022-11-28T02:30:35.968Z,31.6
2022-11-28T02:35:37.688Z,31.6
2022-11-28T02:40:39.650Z,31.6
2022-11-28T02:45:41.474Z,31.6
2022-11-28T02:50:43.196Z,31.6
2022-11-28T02:55:44.924Z,31.5
2022-11-28T03:00:46.791Z,31.6
2022-11-28T03:05:48.540Z,31.5
2022-11-28T03:10:50.283Z,31.5
2022-11-28T03:15:52.174Z,31.5
2022-11-28T03:20:54.177Z,31.4
2022-11-28T03:25:55.910Z,31.5
2022-11-28T03:30:57.994Z,31.4
2022-11-28T03:35:59.726Z,31.4
2022-11-28T03:41:01.448Z,31.4
2022-11-28T03:46:03.295Z,31.4
2022-11-28T03:51:05.236Z,31.4
2022-11-28T03:56:07.020Z,31.4
2022-11-28T04:01:08.893Z,31.4
2022-11-28T04:06:10.690Z,31.4
2022-11-28T04:11:12.415Z,31.4
2022-11-28T04:16:14.301Z,31.3
2022-11-28T04:21:16.024Z,31.3
2022-11-28T04:26:17.759Z,31.3
2022-11-28T04:31:19.853Z,31.3
2022-11-28T04:36:21.843Z,31.2
2022-11-28T04:41:23.556Z,31.2
2022-11-28T04:46:25.448Z,31.2
2022-11-28T04:51:27.212Z,31.2
2022-11-28T04:56:29.161Z,31.2
2022-11-28T05:01:31.044Z,31.2
2022-11-28T05:06:32.806Z,31.2
2022-11-28T05:11:34.507Z,31.2
2022-11-28T05:16:36.441Z,31.2
2022-11-28T05:21:38.218Z,31.2
2022-11-28T05:26:39.905Z,31.2
2022-11-28T05:31:41.724Z,31.1
2022-11-28T05:36:43.421Z,31.1
2022-11-28T05:41:45.083Z,31.1
2022-11-28T05:46:46.866Z,31.1
2022-11-28T05:51:48.525Z,31.1
2022-11-28T05:56:50.410Z,31.1
2022-11-28T06:01:52.223Z,31.1
2022-11-28T06:06:53.938Z,31.1
2022-11-28T06:11:55.626Z,31.1
2022-11-28T06:16:57.487Z,31
2022-11-28T06:21:59.224Z,31
2022-11-28T06:27:01.188Z,31
2022-11-28T06:32:03.355Z,31
2022-11-28T06:37:05.329Z,31
2022-11-28T06:42:07.283Z,31
2022-11-28T06:47:09.409Z,30.9
2022-11-28T06:52:11.387Z,30.9
2022-11-28T06:57:13.423Z,30.9
2022-11-28T07:02:15.653Z,30.9
2022-11-28T07:07:17.542Z,30.9
2022-11-28T07:12:19.564Z,30.9
2022-11-28T07:17:21.657Z,30.9
2022-11-28T07:22:23.423Z,30.9
2022-11-28T07:27:25.604Z,30.9
2022-11-28T07:32:27.609Z,30.8
2022-11-28T07:37:29.361Z,30.8
2022-11-28T07:42:31.109Z,30.8
2022-11-28T07:47:33.093Z,30.8
2022-11-28T07:52:34.854Z,30.8
2022-11-28T07:57:36.611Z,30.8
2022-11-28T08:02:38.658Z,30.8
2022-11-28T08:07:40.681Z,30.8
2022-11-28T08:12:42.441Z,30.8
2022-11-28T08:17:44.216Z,30.8
2022-11-28T08:22:46.175Z,30.8
2022-11-28T08:27:48.137Z,30.7
2022-11-28T08:32:50.156Z,30.7
2022-11-28T08:37:52.135Z,30.7
2022-11-28T08:42:53.860Z,30.7
2022-11-28T08:47:55.629Z,30.7
2022-11-28T08:53:01.661Z,30.6
2022-11-28T08:58:09.046Z,30.6
2022-11-28T09:03:10.797Z,30.6
2022-11-28T09:08:12.624Z,30.6
2022-11-28T09:13:14.654Z,30.6
2022-11-28T09:18:16.469Z,30.6
2022-11-28T09:23:18.466Z,30.6
2022-11-28T09:28:20.287Z,30.6
2022-11-28T09:33:22.026Z,30.6
2022-11-28T09:38:23.775Z,30.6
2022-11-28T09:43:25.558Z,30.5
2022-11-28T09:48:27.330Z,30.6
2022-11-28T09:53:29.050Z,30.5
2022-11-28T09:58:30.793Z,30.5
2022-11-28T10:03:32.554Z,30.5
2022-11-28T10:08:34.526Z,30.5
2022-11-28T10:13:53.508Z,30.4
2022-11-28T10:19:15.901Z,30.4
2022-11-28T10:24:18.053Z,30.4
2022-11-28T10:29:20.025Z,30.4
2022-11-28T10:34:21.945Z,30.4
2022-11-28T10:39:23.925Z,30.4
2022-11-28T10:44:25.868Z,30.4
2022-11-28T10:49:27.616Z,30.4
2022-11-28T10:54:29.345Z,30.4
2022-11-28T10:59:31.102Z,30.4
2022-11-28T11:04:32.928Z,30.4
2022-11-28T11:09:34.733Z,30.3
2022-11-28T11:14:36.694Z,30.3
2022-11-28T11:19:38.704Z,30.3
2022-11-28T11:24:40.398Z,30.3
2022-11-28T11:29:44.642Z,30.3
2022-11-28T11:34:46.694Z,30.3
2022-11-28T11:39:48.467Z,30.3
2022-11-28T11:44:50.230Z,30.3
2022-11-28T11:49:51.961Z,30.3
2022-11-28T11:54:53.666Z,30.3
2022-11-28T11:59:55.666Z,30.3
2022-11-28T12:04:57.502Z,30.3
2022-11-28T12:10:03.171Z,30.2
2022-11-28T12:15:06.031Z,30.2
2022-11-28T12:20:07.749Z,30.2
2022-11-28T12:25:09.439Z,30.2
2022-11-28T12:30:11.556Z,30.2
2022-11-28T12:35:13.564Z,30.1
2022-11-28T12:40:15.240Z,30.1
2022-11-28T12:45:16.938Z,30.1
2022-11-28T12:50:18.650Z,30.1
2022-11-28T12:55:20.686Z,30.1
2022-11-28T13:00:22.563Z,30.1
2022-11-28T13:05:24.284Z,30.1
2022-11-28T13:10:26.376Z,30.1
2022-11-28T13:15:28.046Z,30.1
2022-11-28T13:20:29.976Z,30.1
2022-11-28T13:25:31.881Z,30.1
2022-11-28T13:30:33.792Z,30.1
2022-11-28T13:35:35.534Z,30
2022-11-28T13:40:37.257Z,30
2022-11-28T13:45:39.495Z,30
2022-11-28T13:50:41.284Z,30
2022-11-28T13:55:43.230Z,30
2022-11-28T14:00:45.191Z,29.9
2022-11-28T14:05:48.969Z,29.9
2022-11-28T14:10:50.769Z,29.9
2022-11-28T14:15:52.538Z,29.9
2022-11-28T14:20:54.279Z,29.9
2022-11-28T14:25:55.962Z,29.9
2022-11-28T14:30:57.807Z,29.9
2022-11-28T14:35:59.591Z,29.9
2022-11-28T14:41:01.515Z,29.9
2022-11-28T14:46:03.449Z,29.9
2022-11-28T14:51:05.284Z,29.9
2022-11-28T14:56:06.982Z,29.8
2022-11-28T15:01:08.674Z,29.8
2022-11-28T15:06:10.443Z,29.8
2022-11-28T15:11:12.418Z,29.8
2022-11-28T15:16:14.175Z,29.8
2022-11-28T15:21:16.161Z,29.8
2022-11-28T15:26:18.138Z,29.8
2022-11-28T15:31:20.135Z,29.8
2022-11-28T15:36:21.929Z,29.8
2022-11-28T15:41:23.879Z,29.8
2022-11-28T15:46:25.825Z,29.8
2022-11-28T15:51:27.978Z,29.7
2022-11-28T15:56:29.922Z,29.7
2022-11-28T16:01:31.888Z,29.7
2022-11-28T16:06:33.616Z,29.7
2022-11-28T16:11:35.353Z,29.7
2022-11-28T16:16:37.322Z,29.7
2022-11-28T16:21:39.142Z,29.6
2022-11-28T16:26:40.847Z,29.6
2022-11-28T16:31:42.789Z,29.6
2022-11-28T16:36:44.536Z,29.6
2022-11-28T16:41:46.227Z,29.6
2022-11-28T16:46:47.908Z,29.7
2022-11-28T16:51:50.069Z,33.2
2022-11-28T16:56:52.112Z,36
2022-11-28T17:01:52.412Z,38.7
2022-11-28T17:06:52.797Z,41.5
2022-11-28T17:11:53.174Z,43.3
2022-11-28T17:16:53.590Z,43.8
2022-11-28T17:21:54.517Z,44.7
2022-11-28T17:26:55.398Z,44.7
2022-11-28T17:31:55.868Z,44.7
2022-11-28T17:36:56.353Z,44.8
2022-11-28T17:41:56.888Z,45.6
2022-11-28T17:46:57.421Z,45.7
2022-11-28T17:51:58.142Z,45.7
2022-11-28T17:56:58.664Z,45.6
2022-11-28T18:01:59.502Z,45.9
2022-11-28T18:07:00.462Z,47
2022-11-28T18:12:01.252Z,47.2
2022-11-28T18:17:02.044Z,47.2
2022-11-28T18:22:02.838Z,47.2
2022-11-28T18:27:03.638Z,47.1
2022-11-28T18:32:04.220Z,47.1
2022-11-28T18:37:04.997Z,47.1
2022-11-28T18:42:05.577Z,47.1
2022-11-28T18:47:06.126Z,47
2022-11-28T18:52:06.915Z,46.9
2022-11-28T18:57:07.483Z,46.5
2022-11-28T19:02:08.143Z,46.4
2022-11-28T19:07:08.707Z,46.4
2022-11-28T19:12:09.229Z,46.3
2022-11-28T19:17:10.033Z,46.2
2022-11-28T19:22:10.809Z,46.2
2022-11-28T19:27:14.404Z,46.2
2022-11-28T19:32:15.295Z,46.1
2022-11-28T19:37:15.845Z,46.1
2022-11-28T19:42:16.366Z,46.1
2022-11-28T19:47:17.158Z,46.1
2022-11-28T19:52:17.696Z,46
2022-11-28T19:57:18.233Z,45.9
2022-11-28T20:02:19.018Z,45.9
2022-11-28T20:07:19.826Z,45.9
2022-11-28T20:12:20.609Z,45.8
2022-11-28T20:17:21.385Z,45.8
2022-11-28T20:22:22.196Z,45.8
2022-11-28T20:27:22.939Z,45.6
2022-11-28T20:32:23.668Z,45.6
2022-11-28T20:37:24.242Z,45.6
2022-11-28T20:42:25.245Z,45.5
2022-11-28T20:47:25.770Z,45.4
2022-11-28T20:52:26.316Z,45.4
2022-11-28T20:57:26.863Z,45.3
2022-11-28T21:02:27.445Z,45.3
2022-11-28T21:07:28.138Z,45.2
2022-11-28T21:12:28.920Z,45.2
2022-11-28T21:17:29.412Z,45.1
2022-11-28T21:22:30.132Z,44.9
2022-11-28T21:27:30.810Z,44.7
2022-11-28T21:32:31.529Z,44.6
2022-11-28T21:37:32.228Z,44.6
2022-11-28T21:42:32.937Z,44.6
2022-11-28T21:47:33.404Z,44.5
2022-11-28T21:52:33.881Z,44.4
2022-11-28T21:57:34.358Z,44.4
2022-11-28T22:02:35.070Z,44.3
2022-11-28T22:07:35.831Z,44.2
2022-11-28T22:12:36.315Z,44.2
2022-11-28T22:17:36.741Z,44.1
2022-11-28T22:22:37.180Z,44.1
2022-11-28T22:27:37.669Z,44
2022-11-28T22:32:38.388Z,43.9
2022-11-28T22:37:38.841Z,43.9
2022-11-28T22:42:39.274Z,43.9
2022-11-28T22:47:39.733Z,43.8
2022-11-28T22:52:40.181Z,43.7
2022-11-28T22:57:40.601Z,43.7
2022-11-28T23:02:41.313Z,43.6
2022-11-28T23:07:41.908Z,43.6
2022-11-28T23:12:42.397Z,43.5
2022-11-28T23:17:42.830Z,43.4
2022-11-28T23:22:43.254Z,43.4
2022-11-28T23:27:43.739Z,43.4
2022-11-28T23:32:44.163Z,43.3
2022-11-28T23:37:44.822Z,43.3
2022-11-28T23:42:45.260Z,43.2
2022-11-28T23:47:45.712Z,43.1
2022-11-28T23:52:46.118Z,43.1
2022-11-28T23:57:46.515Z,43
